almost 2 years ago

文章搬家囉!新文章在這裡:https://easonchang.com/2016/08/15/dream-diary-09-fxxking-meteorology/

-2016.08.15-

教官曾預言「期中考只是小菜一碟,過關是剛好,等到期末考,有沒有讀書很明顯。」

現在看起來這預言實在太貼切了!

氣象學

課程進度來到了「氣象學」以及「天氣解碼」。每一位飛行員都希望能夠飛在無風無雨無雲無霧、而且是標準溫壓的天氣底下,但事實是你能中樂透也不一定能遇到這麼優的天氣,所以我們得學習氣象知識。

前半部「氣象學」,簡單!小兒科嘛!這不就高中地球科學課程的東西嘛?什麼冷鋒暖鋒滯留鋒、山風谷風海風陸風、行星風系圖、柯氏力,這些考學測時早啃過了,沒啥!

但後半部的「天氣解碼」,完啦!

天氣解碼

天氣解碼就是各機場的氣象台每半小時會發布即時氣象資訊,我們稱為METAR,而大約每日會發布整天的氣象預報,我們叫它TAF。我們飛行員得讀懂它,才知道啥時能飛、啥時該待在FBO躲雨。

METAR

下面這張圖就是一份METAR(唸作「咪塔」),這是我在撰文當下,台東豐年機場的天氣。

有時候我們只看得到右下角的這串咒語

METAR RCFN 260830Z 13004KT 050V190 9999 FEW035 BKN300 32/25 Q1004 NOSIG RMK A2965=

而我們就要有能力把它轉換成上圖的風向、風速、能見度等資訊,由此來判斷能不能飛。

至於怎麼轉換呢?我們先來看看下面這張精美的符號對照表~

METAR/TAF Abbreviations: http://www.moratech.com/aviation/metaf-abbrev.html

把它背起來吧!如果還有興趣我們再談!(可憐的咱們得全背啊T_T)

TAF

METAR是機場的即時天氣狀況,而未來的預報則要看TAF(唸作「踏斧」)了。

以下是一份TAF,也是一串咒語:

TAF RCFN 271100Z 2712/2812 34005KT 9999 FEW015 BKN032
BECMG 2800/2802 15005KT
TEMPO 2806/2812 18010KT 4000 SHRA SCT007 FEW012CB BKN016
BKN035=

這就沒有這麼方便的編譯結果可以直接看了。而考量到一個字一個字解釋的話文章會太長就沒人看了,一樣我們有興趣再談!

回家小任務

雖然整份符號總表是如此的驚人,但某些極端天氣也許我們終其一生也不會碰到,可略過不學。例如火山灰(Volcano Ash),符號簡寫為VA,台灣也就這麼小,若真出現了火山灰,即使不看METAR/TAF,轉轉電視應該是早就會知道了。

學這類東西終究是要用在現實裡頭,所以今天教官給我們出了個回家任務:

今晚九點!去查松山機場和高雄機場的METAR和TAF,解碼後明早兒帶來!

做中學嘛!非常好!要是回家後能有精神解它就好了!

← 【大夢日記#08】期中考!! 【大夢日記#10】飛航小道具登場!航圖 & Flight Computer →
 
comments powered by Disqus